createdAt,value
2023-01-13T00:00:26.340Z,11.01
2023-01-13T00:04:27.947Z,10.97
2023-01-13T00:08:29.820Z,10.97
2023-01-13T00:12:31.544Z,10.94
2023-01-13T00:16:33.038Z,10.91
2023-01-13T00:20:34.637Z,10.97
2023-01-13T00:24:36.191Z,10.95
2023-01-13T00:28:37.871Z,10.91
2023-01-13T00:32:39.561Z,10.87
2023-01-13T00:36:41.155Z,10.83
2023-01-13T00:40:42.733Z,10.79
2023-01-13T00:44:44.357Z,10.63
2023-01-13T00:48:46.936Z,10.45
2023-01-13T00:52:48.495Z,10.30
2023-01-13T00:56:50.045Z,10.16
2023-01-13T01:00:51.734Z,10.15
2023-01-13T01:04:53.423Z,10.09
2023-01-13T01:08:55.664Z,10.02
2023-01-13T01:12:57.417Z,10.07
2023-01-13T01:16:59.431Z,10.08
2023-01-13T01:21:01.535Z,10.05
2023-01-13T01:25:03.314Z,10.00
2023-01-13T01:29:04.918Z,9.85
2023-01-13T01:33:06.615Z,9.84
2023-01-13T01:37:08.584Z,9.88
2023-01-13T01:41:14.826Z,9.99
2023-01-13T01:45:22.551Z,10.03
2023-01-13T01:49:33.715Z,10.03
2023-01-13T01:53:35.395Z,10.16
2023-01-13T01:57:58.479Z,10.30
2023-01-13T02:02:00.557Z,10.36
2023-01-13T02:06:03.135Z,10.35
2023-01-13T02:10:08.747Z,10.33
2023-01-13T02:14:10.336Z,10.45
2023-01-13T02:18:17.632Z,10.56
2023-01-13T02:22:22.351Z,10.60
2023-01-13T02:27:02.651Z,10.66
2023-01-13T02:31:33.112Z,10.66
2023-01-13T02:35:58.523Z,10.66
2023-01-13T02:40:11.989Z,10.72
2023-01-13T02:44:20.473Z,10.75
2023-01-13T02:48:24.040Z,10.75
2023-01-13T02:52:33.173Z,10.78
2023-01-13T02:56:40.139Z,10.81
2023-01-13T03:00:42.552Z,10.84
2023-01-13T03:04:57.843Z,10.86
2023-01-13T03:09:15.356Z,10.88
2023-01-13T03:13:16.828Z,10.89
2023-01-13T03:17:37.717Z,10.89
2023-01-13T03:21:49.930Z,10.92
2023-01-13T03:25:59.979Z,10.94
2023-01-13T03:30:10.682Z,10.93
2023-01-13T03:34:21.189Z,10.91
2023-01-13T03:38:36.627Z,10.95
2023-01-13T03:43:03.181Z,10.96
2023-01-13T03:47:21.692Z,10.97
2023-01-13T03:51:24.738Z,10.98
2023-01-13T03:55:31.318Z,10.95
2023-01-13T03:59:38.423Z,10.91
2023-01-13T04:04:00.370Z,10.91
2023-01-13T04:08:21.455Z,10.96
2023-01-13T04:12:49.947Z,10.98
2023-01-13T04:16:52.771Z,10.99
2023-01-13T04:20:57.014Z,10.98
2023-01-13T04:24:58.615Z,10.96
2023-01-13T04:29:00.080Z,10.95
2023-01-13T04:33:01.898Z,10.94
2023-01-13T04:37:03.543Z,10.96
2023-01-13T04:41:05.205Z,11.00
2023-01-13T04:45:07.869Z,10.97
2023-01-13T04:49:09.387Z,10.98
2023-01-13T04:53:11.402Z,11.00
2023-01-13T04:57:12.865Z,11.03
2023-01-13T05:01:14.648Z,11.00
2023-01-13T05:05:16.432Z,11.04
2023-01-13T05:09:18.173Z,11.06
2023-01-13T05:13:38.503Z,11.07
2023-01-13T05:17:40.855Z,11.03
2023-01-13T05:22:20.755Z,11.05
2023-01-13T05:26:23.219Z,11.04
2023-01-13T05:30:28.113Z,11.00
2023-01-13T05:34:29.809Z,10.99
2023-01-13T05:38:31.354Z,11.05
2023-01-13T05:42:52.073Z,11.10
2023-01-13T05:46:53.761Z,11.07
2023-01-13T05:50:55.694Z,11.06
2023-01-13T05:54:57.181Z,11.09
2023-01-13T05:58:58.913Z,11.03
2023-01-13T06:03:00.619Z,11.01
2023-01-13T06:07:02.273Z,10.99
2023-01-13T06:11:03.804Z,11.03
2023-01-13T06:15:05.949Z,10.98
2023-01-13T06:19:09.278Z,10.94
2023-01-13T06:23:11.822Z,11.09
2023-01-13T06:27:13.559Z,11.12
2023-01-13T06:31:15.852Z,10.96
2023-01-13T06:35:21.530Z,10.90
2023-01-13T06:39:29.002Z,10.93
2023-01-13T06:43:30.593Z,11.06
2023-01-13T06:47:32.416Z,11.06
2023-01-13T06:51:34.060Z,10.98
2023-01-13T06:55:36.474Z,11.03
2023-01-13T07:05:44.351Z,10.88
2023-01-13T07:09:46.178Z,10.91
2023-01-13T07:14:06.447Z,11.01
2023-01-13T07:18:08.101Z,11.05
2023-01-13T07:22:09.722Z,11.03
2023-01-13T07:27:01.574Z,11.07
2023-01-13T07:31:03.767Z,11.04
2023-01-13T07:35:05.972Z,11.08
2023-01-13T07:39:57.874Z,11.13
2023-01-13T07:45:04.898Z,11.17
2023-01-13T07:49:56.756Z,11.18
2023-01-13T07:53:58.422Z,11.22
2023-01-13T07:58:35.232Z,11.25
2023-01-13T08:03:26.656Z,11.40
2023-01-13T08:07:28.165Z,11.55
2023-01-13T08:11:29.643Z,11.56
2023-01-13T08:15:32.320Z,11.55
2023-01-13T08:20:08.372Z,11.58
2023-01-13T08:24:59.758Z,11.63
2023-01-13T08:29:51.748Z,11.65
2023-01-13T08:34:43.762Z,11.70
2023-01-13T08:39:36.152Z,11.73
2023-01-13T08:44:03.111Z,12.03
2023-01-13T08:48:05.123Z,12.43
2023-01-13T08:52:56.795Z,13.20
2023-01-13T09:02:59.419Z,13.56
2023-01-13T09:07:02.152Z,13.68
2023-01-13T09:11:24.176Z,14.08
2023-01-13T09:15:25.725Z,14.59
2023-01-13T09:19:28.966Z,16.44
2023-01-13T09:23:30.491Z,17.44
2023-01-13T09:27:32.255Z,15.73
2023-01-13T09:31:34.328Z,15.79
2023-01-13T09:35:36.450Z,14.28
2023-01-13T09:39:38.051Z,12.62
2023-01-13T09:43:55.501Z,11.59
2023-01-13T09:48:06.955Z,10.70
2023-01-13T09:52:19.221Z,10.20
2023-01-13T09:56:21.438Z,9.95
2023-01-13T10:00:25.759Z,9.83
2023-01-13T10:04:28.016Z,9.80
2023-01-13T10:08:36.168Z,9.84
2023-01-13T10:12:56.529Z,9.96
2023-01-13T10:17:25.906Z,10.04
2023-01-13T10:21:33.560Z,10.08
2023-01-13T10:25:53.866Z,10.08
2023-01-13T10:29:55.998Z,10.08
2023-01-13T10:34:06.212Z,10.17
2023-01-13T10:38:17.066Z,9.84
2023-01-13T10:42:22.830Z,9.83
2023-01-13T10:46:24.760Z,9.95
2023-01-13T10:50:29.640Z,10.03
2023-01-13T10:54:31.492Z,9.93
2023-01-13T10:58:33.025Z,9.99
2023-01-13T11:02:35.876Z,10.17
2023-01-13T11:06:37.953Z,10.52
2023-01-13T11:10:46.441Z,10.42
2023-01-13T11:14:49.422Z,10.37
2023-01-13T11:19:12.455Z,10.12
2023-01-13T11:23:22.639Z,10.06
2023-01-13T11:27:38.128Z,9.89
2023-01-13T11:31:46.152Z,9.57
2023-01-13T11:36:02.003Z,9.20
2023-01-13T11:40:05.346Z,9.70
2023-01-13T11:44:09.925Z,10.29
2023-01-13T11:48:17.703Z,10.55
2023-01-13T11:52:32.036Z,10.30
2023-01-13T11:56:47.723Z,10.04
2023-01-13T12:01:23.736Z,10.01
2023-01-13T12:05:29.551Z,9.95
2023-01-13T12:09:48.055Z,10.06
2023-01-13T12:14:11.503Z,10.13
2023-01-13T12:18:38.206Z,10.40
2023-01-13T12:22:42.404Z,13.25
2023-01-13T12:26:51.066Z,14.99
2023-01-13T12:30:59.594Z,20.67
2023-01-13T12:35:22.940Z,22.06
2023-01-13T12:39:43.290Z,22.04
2023-01-13T12:44:07.226Z,23.28
2023-01-13T12:48:28.643Z,22.15
2023-01-13T12:52:43.945Z,17.78
2023-01-13T12:56:45.798Z,14.69
2023-01-13T13:00:49.651Z,13.65
2023-01-13T13:04:55.988Z,14.92
2023-01-13T13:09:20.766Z,19.40
2023-01-13T13:13:43.575Z,23.94
2023-01-13T13:18:00.184Z,25.91
2023-01-13T13:22:14.432Z,25.11
2023-01-13T13:26:23.733Z,23.47
2023-01-13T13:30:35.189Z,23.62
2023-01-13T13:34:52.086Z,23.45
2023-01-13T13:39:37.547Z,24.04
2023-01-13T13:44:02.287Z,22.45
2023-01-13T13:48:23.631Z,23.90
2023-01-13T13:52:54.134Z,24.59
2023-01-13T13:56:56.220Z,24.89
2023-01-13T14:00:58.443Z,21.46
2023-01-13T14:05:52.137Z,17.29
2023-01-13T14:09:54.747Z,16.41
2023-01-13T14:14:05.174Z,16.04
2023-01-13T14:18:13.616Z,14.78
2023-01-13T14:22:21.966Z,13.74
2023-01-13T14:26:29.586Z,12.75
2023-01-13T14:30:32.824Z,12.37
2023-01-13T14:34:35.536Z,12.32
2023-01-13T14:38:39.282Z,12.08
2023-01-13T14:42:43.670Z,11.81
2023-01-13T14:46:45.952Z,11.66
2023-01-13T14:50:47.688Z,11.51
2023-01-13T14:55:11.709Z,11.29
2023-01-13T14:59:35.372Z,11.17
2023-01-13T15:03:42.025Z,11.14
2023-01-13T15:08:06.665Z,10.92
2023-01-13T15:12:28.424Z,10.94
2023-01-13T15:23:01.326Z,10.65
2023-01-13T15:27:52.682Z,9.92
2023-01-13T15:32:44.684Z,9.41
2023-01-13T15:37:56.743Z,8.76
2023-01-13T15:42:18.237Z,8.39
2023-01-13T15:46:38.511Z,8.06
2023-01-13T15:50:40.363Z,7.78
2023-01-13T15:54:41.892Z,7.57
2023-01-13T15:58:43.656Z,7.43
2023-01-13T16:02:45.317Z,7.30
2023-01-13T16:06:47.414Z,7.20
2023-01-13T16:10:50.033Z,7.11
2023-01-13T16:14:51.707Z,7.05
2023-01-13T16:18:54.233Z,7.06
2023-01-13T16:22:58.901Z,7.05
2023-01-13T16:27:00.380Z,7.24
2023-01-13T16:31:15.969Z,7.11
2023-01-13T16:35:18.956Z,7.19
2023-01-13T16:39:22.116Z,7.13
2023-01-13T16:43:23.691Z,7.18
2023-01-13T16:47:25.292Z,7.23
2023-01-13T16:51:26.774Z,7.21
2023-01-13T16:55:28.398Z,7.18
2023-01-13T16:59:29.993Z,7.10
2023-01-13T17:03:35.983Z,6.90
2023-01-13T17:07:37.773Z,6.69
2023-01-13T17:11:39.688Z,6.67
2023-01-13T17:15:41.547Z,6.60
2023-01-13T17:19:43.476Z,6.59
2023-01-13T17:23:45.509Z,6.56
2023-01-13T17:27:47.081Z,6.82
2023-01-13T17:31:52.608Z,7.15
2023-01-13T17:35:54.411Z,7.51
2023-01-13T17:39:55.977Z,7.65
2023-01-13T17:43:57.589Z,7.78
2023-01-13T17:47:59.387Z,7.77
2023-01-13T17:52:01.030Z,7.86
2023-01-13T17:56:02.665Z,8.03
2023-01-13T18:00:05.043Z,8.10
2023-01-13T18:04:20.709Z,8.36
2023-01-13T18:08:23.664Z,8.45
2023-01-13T18:12:25.431Z,8.43
2023-01-13T18:16:30.448Z,8.44
2023-01-13T18:20:50.578Z,8.87
2023-01-13T18:25:10.556Z,8.69
2023-01-13T18:29:12.169Z,8.39
2023-01-13T18:33:13.915Z,8.27
2023-01-13T18:37:16.688Z,8.28
2023-01-13T18:41:36.931Z,8.47
2023-01-13T18:45:38.503Z,8.53
2023-01-13T18:49:40.070Z,8.44
2023-01-13T18:53:41.761Z,8.53
2023-01-13T18:57:43.313Z,8.56
2023-01-13T19:01:45.117Z,8.46
2023-01-13T19:05:46.675Z,8.53
2023-01-13T19:09:49.997Z,8.61
2023-01-13T19:13:53.425Z,8.64
2023-01-13T19:17:55.015Z,8.58
2023-01-13T19:21:56.717Z,8.44
2023-01-13T19:26:00.069Z,8.58
2023-01-13T19:30:02.884Z,8.62
2023-01-13T19:34:05.637Z,8.79
2023-01-13T19:38:07.255Z,8.64
2023-01-13T19:42:29.888Z,8.70
2023-01-13T19:46:32.913Z,8.89
2023-01-13T19:50:38.916Z,8.75
2023-01-13T19:54:40.712Z,8.56
2023-01-13T19:58:43.953Z,8.51
2023-01-13T20:02:49.080Z,8.42
2023-01-13T20:06:50.597Z,8.30
2023-01-13T20:11:12.443Z,8.31
2023-01-13T20:15:14.222Z,8.63
2023-01-13T20:19:15.801Z,8.72
2023-01-13T20:23:17.480Z,8.91
2023-01-13T20:27:19.034Z,8.62
2023-01-13T20:31:20.697Z,8.77
2023-01-13T20:35:22.313Z,8.95
2023-01-13T20:39:28.845Z,8.81
2023-01-13T20:43:30.349Z,8.96
2023-01-13T20:47:32.195Z,8.89
2023-01-13T20:51:33.815Z,8.86
2023-01-13T20:55:35.351Z,8.47
2023-01-13T20:59:38.188Z,8.36
2023-01-13T21:03:39.864Z,8.19
2023-01-13T21:07:41.446Z,8.20
2023-01-13T21:12:01.691Z,8.00
2023-01-13T21:16:03.431Z,8.06
2023-01-13T21:20:06.934Z,8.19
2023-01-13T21:24:08.659Z,8.28
2023-01-13T21:28:11.693Z,8.31
2023-01-13T21:32:13.758Z,8.36
2023-01-13T21:36:15.732Z,8.44
2023-01-13T21:40:18.118Z,8.62
2023-01-13T21:44:39.974Z,8.74
2023-01-13T21:48:41.614Z,8.79
2023-01-13T21:52:43.320Z,8.82
2023-01-13T21:56:44.957Z,8.97
2023-01-13T22:00:49.019Z,8.92
2023-01-13T22:04:51.870Z,8.74
2023-01-13T22:08:59.880Z,8.70
2023-01-13T22:13:21.629Z,8.51
2023-01-13T22:17:26.427Z,8.38
2023-01-13T22:21:27.988Z,8.35
2023-01-13T22:25:29.773Z,8.19
2023-01-13T22:29:31.504Z,8.09
2023-01-13T22:33:33.089Z,8.10
2023-01-13T22:37:35.292Z,8.22
2023-01-13T22:41:36.922Z,8.27
2023-01-13T22:45:38.841Z,8.34
2023-01-13T22:49:42.060Z,8.37
2023-01-13T22:53:43.858Z,8.37
2023-01-13T22:57:48.094Z,8.24
2023-01-13T23:01:50.057Z,8.11
2023-01-13T23:05:57.283Z,8.29
2023-01-13T23:09:59.261Z,8.35
2023-01-13T23:14:03.794Z,8.54
2023-01-13T23:18:05.375Z,8.35
2023-01-13T23:22:06.920Z,8.53
2023-01-13T23:26:08.885Z,8.40
2023-01-13T23:30:11.376Z,8.18
2023-01-13T23:34:12.929Z,7.97
2023-01-13T23:38:14.478Z,7.71
2023-01-13T23:42:16.019Z,7.62
2023-01-13T23:46:17.938Z,7.55
2023-01-13T23:50:19.429Z,7.50
2023-01-13T23:54:21.021Z,7.53
2023-01-13T23:58:22.546Z,7.45
